Tiempo atmosférico en la estación meteorológica de Antigua, Las Palmas (252 m.)

Fecha
DESCASC
Temp. máxima en grados centígrados (hora)
DESCASC
Temp. mínima en grados centígrados (hora)
DESCASC
Temp. media en grados centígrados
DESCASC
Racha de viento máxima en m/sg (hora)
DESCASC
Velocidad máxima media en intervalos de 10 minutos(hora)
DESCASC
Precipitaciones diarias en mm
DESCASC
Precipitaciones de 00:00 a 06:00 en mm
DESCASC
Precipitaciones de 06:00 a 12:00 en mm
DESCASC
Precipitaciones de 12:00 a 18:00 en mm
DESCASC
Precipitaciones de 18:00 a 24:00 en mm
DESCASC
23-11-2017 24.4 (12:20) 13.7 (00:20) 19 12.78 (12:30) 8.33 (13:30) 0 0 0 0 0
22-11-2017 25.2 (14:10) 15 (23:59) 20.1 8.89 (12:40) 5.28 (13:40) 0 0 0 0 0
21-11-2017 24.8 (13:40) 16.3 (22:20) 20.5 11.67 (13:40) 7.5 (12:50) 0 0 0 0 0
20-11-2017 27.2 (16:30) 14.6 (22:30) 20.9 9.72 (15:10) 6.11 (15:10) 0 0 0 0 0
19-11-2017 21.4 (13:40) 15.1 (00:00) 18.3 7.5 (13:50) 5 (13:50) 0 0 0 0 0
18-11-2017 22.3 (15:10) 16.2 (00:00) 19.3 7.22 (14:20) 5 (16:20) 0 0 0 0 0
17-11-2017 21.7 (14:10) 12.7 (00:00) 17.2 7.5 (15:30) 5.28 (15:30) 0 0 0 0 0
16-11-2017 -- (--) -- (--) -- -- (--) -- (--) -- 0 -- 0 0
15-11-2017 21.8 (13:10) 13.7 (00:00) 17.7 14.17 (15:20) 7.22 (14:50) 0 0 0 0 0
14-11-2017 -- (--) -- (--) -- -- (--) -- (--) -- 0 0 -- 0
13-11-2017 -- (--) -- (--) -- -- (--) -- (--) -- -- 0 0 0
12-11-2017 26.8 (14:20) 16.2 (00:00) 21.5 7.22 (13:40) 4.17 (15:40) 0 0 0 0 0
11-11-2017 26.4 (16:10) 15.9 (00:00) 21.1 6.39 (12:40) 3.89 (12:40) 0 0 0 0 0
10-11-2017 23.5 (13:50) 17.4 (00:00) 20.4 9.72 (15:30) 6.39 (15:30) 0 0 0 0 0
09-11-2017 24.8 (12:00) 16.5 (00:00) 20.6 8.33 (14:10) 5.28 (12:30) 0 0 0 0 0
08-11-2017 25.1 (14:00) 17.8 (00:00) 21.4 10.83 (11:40) 6.67 (11:30) 0 0 0 0 0
07-11-2017 -- (--) -- (--) -- -- (--) -- (--) -- 0 0 0 --
06-11-2017 23.5 (13:10) 16.3 (00:00) 19.9 12.22 (12:50) 7.22 (18:00) 0 0 0 0 0
05-11-2017 23.3 (13:30) 16.2 (00:00) 19.8 13.89 (14:40) 8.61 (13:50) 0 0 0 0 0
04-11-2017 22.7 (12:30) 14.5 (00:00) 18.6 10 (12:30) 6.67 (11:00) 0 0 0 0 0
03-11-2017 24.4 (13:50) 14.4 (00:00) 19.4 8.06 (16:10) 5.28 (15:30) 0 0 0 0 0
02-11-2017 -- (--) -- (--) -- -- (--) -- (--) -- 0 0 0 --
01-11-2017 24.7 (14:10) 14.8 (00:00) 19.8 7.22 (12:10) 5 (16:50) 0 0 0 0 0
31-10-2017 25.8 (14:50) 14.4 (00:00) 20.1 7.5 (15:20) 5 (15:20) 0.2 0 0.2 0 0
30-10-2017 27.2 (13:50) 14.8 (00:00) 21 8.33 (18:00) 5.83 (17:10) 0.2 0 0.2 0 0
29-10-2017 27.5 (13:00) 15.4 (00:00) 21.4 8.33 (17:10) 6.67 (17:40) 0 0 0 0 0
28-10-2017 -- (--) -- (--) -- -- (--) -- (--) -- -- 0 0 0
27-10-2017 28.3 (16:00) 20.2 (00:00) 24.3 12.78 (10:50) 8.61 (10:50) 0 0 0 0 0
26-10-2017 -- (--) -- (--) -- -- (--) -- (--) -- 0 -- 0 0
25-10-2017 31 (15:00) 18.6 (00:00) 24.8 8.33 (16:00) 5.28 (15:40) 0 0 0 0 0

Gráficas

Temp. máximas Temp. mínimas Temp. medias Precipitaciones Rachas de viento máximas Velocidades máximas media en intervalos de 10 minutos

Datos horarios

Fecha y hora oficial Temperatura (ºC) Velocidad del viento (km/h) Dirección del viento Racha (km/h) Dirección de racha Precipitación (mm) Presión (hPa) Tendencia (hPa) Humedad (%)
2017-11-23 23:00:00 15.9 4 Noroeste 7 Noroeste 0 -- -- 54
2017-11-23 22:00:00 16.5 3 Noroeste 8 Oeste 0 -- -- 55
2017-11-23 21:00:00 18.8 0 Calma 8 Este 0 -- -- 49
2017-11-23 20:00:00 20.5 0 Calma 27 Sudoeste 0 -- -- 41
2017-11-23 19:00:00 23.2 23 Sudoeste 32 Sudoeste 0 -- -- 29
2017-11-23 18:00:00 20.6 6 Sur 19 Sur 0 -- -- 57
2017-11-23 17:00:00 22 14 Sur 26 Sur 0 -- -- 51
2017-11-23 16:00:00 23.1 14 Sur 30 Sur 0 -- -- 43
2017-11-23 15:00:00 23.2 18 Sur 40 Sur 0 -- -- 38
2017-11-23 14:00:00 23.4 24 Sur 43 Sur 0 -- -- 36
2017-11-23 13:00:00 23.7 29 Sur 46 Sudeste 0 -- -- 34
2017-11-23 12:00:00 24.2 24 Sur 37 Sur 0 -- -- 33
2017-11-23 11:00:00 23.7 22 Sur 36 Sudoeste 0 -- -- 33
2017-11-23 10:00:00 21.2 16 Sudeste 23 Sudeste 0 -- -- 49
2017-11-23 09:00:00 19.3 7 Sudeste 12 Sudeste 0 -- -- 58
2017-11-23 08:00:00 16 2 Sudoeste 5 Sur 0 -- -- 55
2017-11-23 07:00:00 15.8 4 Sur 9 Sur 0 -- -- 45
2017-11-23 06:00:00 16.6 5 Sur 7 Sur 0 -- -- 37
2017-11-23 05:00:00 14.8 0 Calma 6 Sudoeste 0 -- -- 34
2017-11-23 04:00:00 17.6 3 Sudoeste 9 Sudoeste 0 -- -- 34
2017-11-23 03:00:00 18.5 5 Sur 10 Oeste 0 -- -- 27
2017-11-23 02:00:00 18.8 6 Sudoeste 9 Sudoeste 0 -- -- 25
2017-11-23 01:00:00 16.5 4 Sur 7 Sur 0 -- -- 28
2017-11-23 00:00:00 15 2 Noroeste 5 Sudoeste 0 -- -- 48
2017-11-22 23:00:00 17 0 Calma 5 Oeste 0 -- -- 68
2017-11-22 22:00:00 16.8 2 Nordeste 9 Sudoeste 0 -- -- 25
2017-11-22 21:00:00 16.8 9 Sudoeste 12 Sudoeste 0 -- -- 26
2017-11-22 20:00:00 16.2 3 Noroeste 6 Noroeste 0 -- -- 28
2017-11-22 19:00:00 18.7 4 Oeste 10 Sur 0 -- -- 26
2017-11-22 18:00:00 21.3 9 Sur 14 Sudeste 0 -- -- 25
2017-11-22 17:00:00 23.5 11 Sudeste 21 Sudeste 0 -- -- 24
2017-11-22 16:00:00 24.3 13 Sudeste 26 Sudeste 0 -- -- 22
2017-11-22 15:00:00 24.7 18 Sudeste 26 Sur 0 -- -- 24
2017-11-22 14:00:00 25 18 Sur 30 Sudeste 0 -- -- 24
2017-11-22 13:00:00 24.8 16 Sur 32 Sudeste 0 -- -- 28
2017-11-22 12:00:00 24.5 17 Sur 29 Sudeste 0 -- -- 31
2017-11-22 11:00:00 22.7 15 Sudeste 24 Sudeste 0 -- -- 36
2017-11-22 10:00:00 21.4 13 Sudeste 19 Este 0 -- -- 41
2017-11-22 09:00:00 19.5 5 Sudeste 13 Sur 0 -- -- 45
2017-11-22 08:00:00 17.9 10 Sur 14 Sur 0 -- -- 49
2017-11-22 07:00:00 16.5 9 Sur 12 Sur 0 -- -- 51
2017-11-22 06:00:00 16.5 8 Sur 14 Sur 0 -- -- 52
2017-11-22 05:00:00 16.6 11 Sur 14 Sur 0 -- -- 57
2017-11-22 04:00:00 16.5 11 Sur 15 Sur 0 -- -- 64
2017-11-22 03:00:00 16.6 7 Sur 14 Sudeste 0 -- -- 76
2017-11-22 02:00:00 16.6 9 Sur 12 Sudeste 0 -- -- 81
2017-11-22 01:00:00 17.2 5 Sudoeste 10 Sudoeste 0 -- -- 70
2017-11-22 00:00:00 17 8 Sudoeste 12 Sur 0 -- -- 78
2017-11-21 23:00:00 16.9 5 Sur 9 Este 0 -- -- 72
2017-11-21 22:00:00 17.4 0 Calma 3 Sur 0 -- -- 59
2017-11-21 21:00:00 17.3 0 Calma 3 Nordeste 0 -- -- 58
2017-11-21 20:00:00 18 0 Calma 6 Sudoeste 0 -- -- 55
2017-11-21 19:00:00 19.6 5 Sudeste 11 Este 0 -- -- 44
2017-11-21 18:00:00 21.9 5 Sudeste 20 Sudeste 0 -- -- 24
2017-11-21 17:00:00 23.3 15 Sudeste 31 Sudeste 0 -- -- 22
2017-11-21 16:00:00 23.7 22 Sudeste 35 Sudeste 0 -- -- 21
2017-11-21 15:00:00 23.7 19 Sudeste 41 Sur 0 -- -- 23
2017-11-21 14:00:00 24.5 24 Sudeste 42 Sudeste 0 -- -- 23
2017-11-21 13:00:00 23.9 27 Sur 41 Sudeste 0 -- -- 26
2017-11-21 12:00:00 23.4 23 Sudeste 37 Sudeste 0 -- -- 29
2017-11-21 11:00:00 23 19 Sudeste 33 Sudeste 0 -- -- 30
2017-11-21 10:00:00 21.2 12 Sudeste 24 Sudeste 0 -- -- 36
2017-11-21 09:00:00 20.5 12 Sudeste 18 Sudeste 0 -- -- 38
2017-11-21 08:00:00 18.1 13 Sur 19 Sur 0 -- -- 42
2017-11-21 07:00:00 17.1 13 Sur 16 Sur 0 -- -- 43
2017-11-21 06:00:00 16.7 8 Sudoeste 13 Sur 0 -- -- 49
2017-11-21 05:00:00 17.7 12 Sur 14 Sur 0 -- -- 45
2017-11-21 04:00:00 17.4 9 Sur 11 Sur 0 -- -- 48
2017-11-21 03:00:00 17.7 8 Sur 10 Sur 0 -- -- 54
2017-11-21 02:00:00 18.2 6 Sur 13 Sur 0 -- -- 48
2017-11-21 01:00:00 17.6 6 Oeste 14 Sudeste 0 -- -- 60
2017-11-21 00:00:00 18.1 7 Sur 9 Sudoeste 0 -- -- 49
2017-11-20 23:00:00 16.2 3 Sur 6 Sudoeste 0 -- -- 61
2017-11-20 22:00:00 16.8 0 Calma 6 Oeste 0 -- -- 86
2017-11-20 21:00:00 16.3 2 Norte 5 Noroeste 0 -- -- 74
2017-11-20 20:00:00 18.1 2 Oeste 6 Noroeste 0 -- -- 73
2017-11-20 19:00:00 19.3 3 Oeste 6 Este 0 -- -- 42
2017-11-20 18:00:00 22.2 7 Este 19 Sur 0 -- -- 61
2017-11-20 17:00:00 25.5 8 Sudeste 30 Sudeste -- -- -- 31
2017-11-20 16:00:00 26.4 18 Sudeste 35 Sudeste 0 -- -- 18
2017-11-20 15:00:00 26.8 21 Sur 34 Sur 0 -- -- 20
2017-11-20 14:00:00 23.4 17 Sudeste 24 Sudeste 0 -- -- 50
2017-11-20 13:00:00 23.5 14 Sudeste 22 Este 0 -- -- 55
2017-11-20 12:00:00 22.3 11 Sudeste 23 Este 0 -- -- 63
2017-11-20 11:00:00 21.6 17 Este 26 Este 0 -- -- 69
2017-11-20 10:00:00 20.2 12 Este 20 Este 0 -- -- 80
2017-11-20 09:00:00 18.2 4 Sudeste 10 Este 0 -- -- 93
2017-11-20 08:00:00 17.4 3 Sudoeste 13 Sudeste 0 -- -- 93
2017-11-20 07:00:00 17.3 5 Sudeste 11 Sudeste 0 -- -- 93
2017-11-20 06:00:00 17.4 4 Sudeste 14 Sudeste 0 -- -- 93
2017-11-20 05:00:00 17.4 5 Sudeste 19 Este 0 -- -- 91
2017-11-20 04:00:00 17.4 5 Sudeste 14 Este 0 -- -- 90
2017-11-20 03:00:00 17.3 3 Este 10 Este 0 -- -- 90
2017-11-20 02:00:00 17.2 5 Sudeste 15 Este 0 -- -- 90
2017-11-20 01:00:00 17.3 9 Este 17 Este 0 -- -- 89
2017-11-20 00:00:00 17.4 4 Sudeste 15 Este 0 -- -- 87
2017-11-19 23:00:00 17.6 10 Este 17 Este 0 -- -- 86
2017-11-19 22:00:00 17.6 5 Este 14 Este 0 -- -- 85
2017-11-19 21:00:00 17.7 4 Este 15 Este 0 -- -- 84
2017-11-19 20:00:00 17.9 8 Nordeste 18 Este 0 -- -- 82
2017-11-19 19:00:00 18 12 Nordeste 19 Nordeste 0 -- -- 81
2017-11-19 18:00:00 18.4 6 Nordeste 19 Este 0 -- -- 78
2017-11-19 17:00:00 19.2 13 Este 20 Nordeste 0 -- -- 74
2017-11-19 16:00:00 20.1 12 Nordeste 21 Este 0 -- -- 69
2017-11-19 15:00:00 20.9 12 Este 27 Este 0 -- -- 66
2017-11-19 14:00:00 20.8 14 Este 27 Este 0 -- -- 66
2017-11-19 13:00:00 21.3 16 Este 24 Este 0 -- -- 65
2017-11-19 12:00:00 20.9 15 Este 26 Este 0 -- -- 66
2017-11-19 11:00:00 20.3 11 Este 23 Este 0 -- -- 69
2017-11-19 10:00:00 19.1 12 Este 22 Este 0 -- -- 75
2017-11-19 09:00:00 18.1 12 Este 18 Nordeste 0 -- -- 79
2017-11-19 08:00:00 16.4 3 Norte 9 Noroeste 0 -- -- 86
2017-11-19 07:00:00 15.6 6 Noroeste 13 Norte 0 -- -- 87
2017-11-19 06:00:00 15.1 5 Norte 10 Norte 0 -- -- 84
2017-11-19 05:00:00 16.5 8 Norte 17 Nordeste 0 -- -- 80
2017-11-19 04:00:00 17.5 10 Nordeste 16 Nordeste 0 -- -- 82
2017-11-19 03:00:00 17.5 9 Este 17 Este 0 -- -- 84
2017-11-19 02:00:00 16.8 3 Nordeste 10 Nordeste 0 -- -- 82
2017-11-19 01:00:00 17 0 Calma 17 Este 0 -- -- 80
2017-11-19 00:00:00 17.1 3 Nordeste 17 Nordeste 0 -- -- 81
2017-11-18 23:00:00 17.5 9 Nordeste 17 Norte 0 -- -- 81
2017-11-18 22:00:00 17.5 11 Nordeste 22 Nordeste 0 -- -- 81
2017-11-18 21:00:00 17.3 9 Norte 17 Nordeste 0 -- -- 83
2017-11-18 20:00:00 16.7 4 Norte 13 Nordeste 0 -- -- 80
2017-11-18 19:00:00 17.6 10 Nordeste 19 Nordeste 0 -- -- 78
2017-11-18 18:00:00 18.3 13 Nordeste 25 Nordeste 0 -- -- 76
2017-11-18 17:00:00 20 17 Nordeste 26 Nordeste 0 -- -- 68
2017-11-18 16:00:00 21.4 16 Nordeste 23 Norte 0 -- -- 62
2017-11-18 15:00:00 22 8 Sudeste 26 Oeste 0 -- -- 59
2017-11-18 14:00:00 21.6 10 Este 21 Este 0 -- -- 62
2017-11-18 13:00:00 21.4 13 Este 23 Este 0 -- -- 62
2017-11-18 12:00:00 21.1 10 Este 22 Este 0 -- -- 64
2017-11-18 11:00:00 20.3 13 Este 25 Este 0 -- -- 70
2017-11-18 10:00:00 20 14 Este 20 Este 0 -- -- 70
2017-11-18 09:00:00 17.5 4 Sudeste 8 Sudeste 0 -- -- 82
2017-11-18 08:00:00 16.4 2 Oeste 8 Sudeste 0 -- -- 84
2017-11-18 07:00:00 16.4 3 Sur 8 Sudeste 0 -- -- 84
2017-11-18 06:00:00 16.7 2 Sur 8 Este 0 -- -- 82
2017-11-18 05:00:00 17 4 Este 15 Este 0 -- -- 82
2017-11-18 04:00:00 16.7 2 Sur 9 Nordeste 0 -- -- 81
2017-11-18 03:00:00 16.8 8 Norte 21 Nordeste 0 -- -- 81
2017-11-18 02:00:00 17.2 8 Nordeste 19 Nordeste 0 -- -- 83
2017-11-18 01:00:00 17.1 6 Norte 9 Noroeste 0 -- -- 81
2017-11-18 00:00:00 17.2 5 Norte 12 Nordeste 0 -- -- 82
2017-11-17 23:00:00 17.2 6 Nordeste 15 Nordeste 0 -- -- 83
2017-11-17 22:00:00 17.4 11 Nordeste 22 Nordeste 0 -- -- 82
2017-11-17 21:00:00 17.6 14 Nordeste 22 Nordeste 0 -- -- 81
2017-11-17 20:00:00 17.7 10 Nordeste 16 Norte 0 -- -- 78
2017-11-17 19:00:00 17.8 12 Nordeste 19 Nordeste 0 -- -- 77
2017-11-17 18:00:00 18.3 13 Nordeste 20 Nordeste 0 -- -- 71
2017-11-17 17:00:00 19.3 14 Nordeste 26 Nordeste 0 -- -- 67
2017-11-17 16:00:00 20.7 18 Nordeste 27 Este 0 -- -- 62
2017-11-17 15:00:00 21.4 15 Nordeste 23 Nordeste 0 -- -- 59
2017-11-17 14:00:00 21.4 15 Nordeste 25 Nordeste 0 -- -- 59
2017-11-17 13:00:00 21.1 14 Nordeste 26 Nordeste 0 -- -- 60
2017-11-17 12:00:00 20.2 15 Nordeste 24 Nordeste 0 -- -- 64
2017-11-17 11:00:00 19.5 16 Nordeste 23 Nordeste 0 -- -- 70
2017-11-17 10:00:00 18.8 11 Nordeste 22 Nordeste 0 -- -- 73
2017-11-17 09:00:00 17.5 8 Noroeste 13 Noroeste 0 -- -- 83
2017-11-17 08:00:00 15.2 8 Noroeste 12 Noroeste 0 -- -- 92
2017-11-17 07:00:00 14.1 9 Noroeste 11 Noroeste 0 -- -- 93
2017-11-17 06:00:00 13.3 7 Noroeste 9 Noroeste 0 -- -- 94
2017-11-17 05:00:00 13.6 5 Noroeste 10 Noroeste 0 -- -- 92
2017-11-17 04:00:00 14.4 7 Noroeste 13 Norte 0 -- -- 93
2017-11-17 03:00:00 14 7 Noroeste 9 Noroeste 0 -- -- 92
2017-11-17 02:00:00 13 5 Noroeste 10 Noroeste 0 -- -- 91
2017-11-17 01:00:00 13.7 8 Noroeste 10 Noroeste 0 -- -- 88
2017-11-17 00:00:00 14.4 7 Norte 9 Norte 0 -- -- 85
2017-11-16 23:00:00 16 6 Norte 15 Nordeste 0 -- -- 81
2017-11-16 22:00:00 17.2 10 Nordeste 21 Nordeste 0 -- -- 80
2017-11-16 21:00:00 17.3 12 Nordeste 18 Nordeste 0 -- -- 80
2017-11-16 20:00:00 17.4 12 Nordeste 18 Nordeste 0 -- -- 79
2017-11-16 19:00:00 17.7 12 Nordeste 19 Nordeste 0 -- -- 78
2017-11-16 18:00:00 18.4 12 Nordeste 22 Nordeste 0 -- -- 76
2017-11-16 17:00:00 19.4 14 Nordeste 23 Nordeste 0 -- -- 71
2017-11-16 16:00:00 20.3 16 Nordeste 23 Nordeste 0 -- -- 66
2017-11-16 15:00:00 20.9 14 Este 23 Este 0 -- -- 66
2017-11-16 14:00:00 21.5 13 Este 32 Este 0 -- -- 62
2017-11-16 13:00:00 21.9 12 Este 26 Este 0 -- -- 60
2017-11-16 12:00:00 21.4 14 Nordeste 24 Nordeste 0 -- -- 58
2017-11-16 11:00:00 20.3 13 Norte 27 Norte 0 -- -- 62
2017-11-16 10:00:00 19.2 14 Norte 23 Noroeste 0 -- -- 66
2017-11-16 09:00:00 17.6 11 Noroeste 17 Noroeste 0 -- -- 70
2017-11-16 08:00:00 -- -- -- -- -- -- -- -- --
2017-11-16 07:00:00 13.8 12 Noroeste 14 Noroeste 0 -- -- 80
2017-11-16 06:00:00 13.9 12 Noroeste 14 Noroeste 0 -- -- 79
2017-11-16 05:00:00 13.8 10 Noroeste 12 Noroeste 0 -- -- 80
2017-11-16 04:00:00 13.8 11 Noroeste 14 Noroeste 0 -- -- 78
2017-11-16 03:00:00 13.8 11 Noroeste 14 Noroeste 0 -- -- 77
2017-11-16 02:00:00 13.8 12 Noroeste 13 Noroeste 0 -- -- 77
2017-11-16 01:00:00 13.5 10 Noroeste 12 Noroeste 0 -- -- 77
2017-11-16 00:00:00 13.8 9 Noroeste 10 Noroeste 0 -- -- 75
2017-11-15 23:00:00 14.6 7 Noroeste 10 Noroeste 0 -- -- 73
2017-11-15 22:00:00 15.6 10 Noroeste 17 Norte 0 -- -- 71
2017-11-15 21:00:00 16.5 12 Noroeste 17 Norte 0 -- -- 69
2017-11-15 20:00:00 16.8 11 Noroeste 23 Norte 0 -- -- 68
2017-11-15 19:00:00 17.8 18 Norte 26 Norte 0 -- -- 67
2017-11-15 18:00:00 18.4 22 Norte 32 Noroeste 0 -- -- 66
2017-11-15 17:00:00 19.2 23 Noroeste 36 Norte 0 -- -- 62
2017-11-15 16:00:00 19.8 22 Noroeste 51 Norte 0 -- -- 59
2017-11-15 15:00:00 21.1 24 Noroeste 36 Norte 0 -- -- 55
2017-11-15 14:00:00 21.4 21 Norte 47 Norte 0 -- -- 52
2017-11-15 13:00:00 21.7 10 Nordeste 26 Nordeste 0 -- -- 50
2017-11-15 12:00:00 20.5 15 Nordeste 33 Nordeste 0 -- -- 54
2017-11-15 11:00:00 20 13 Nordeste 27 Nordeste 0 -- -- 57
2017-11-15 10:00:00 19 13 Nordeste 21 Nordeste 0 -- -- 59
2017-11-15 09:00:00 18 13 Norte 22 Nordeste 0 -- -- 61
2017-11-15 08:00:00 17.2 13 Norte 24 Norte 0 -- -- 64
2017-11-15 07:00:00 16.9 8 Norte 24 Nordeste 0 -- -- 66
2017-11-15 06:00:00 17 12 Norte 20 Norte 0 -- -- 66
2017-11-15 05:00:00 16.6 6 Norte 19 Norte 0 -- -- 67
2017-11-15 04:00:00 17.2 11 Norte 19 Norte 0 -- -- 67
2017-11-15 03:00:00 17.4 13 Norte 21 Noroeste 0 -- -- 66
2017-11-15 02:00:00 17.3 9 Norte 13 Norte 0 -- -- 72
2017-11-15 01:00:00 17.2 8 Norte 20 Nordeste 0 -- -- 69
2017-11-15 00:00:00 17.9 11 Nordeste 20 Nordeste 0 -- -- 65
2017-11-14 23:00:00 17.3 13 Norte 22 Nordeste 0 -- -- 66
2017-11-14 22:00:00 17.6 14 Norte 22 Norte 0 -- -- 69
2017-11-14 21:00:00 17.6 13 Norte 24 Norte 0 -- -- 68
2017-11-14 20:00:00 16.8 17 Norte 27 Norte 0 -- -- 72
2017-11-14 19:00:00 17.7 21 Norte 28 Norte 0 -- -- 69
2017-11-14 18:00:00 18.8 15 Norte 33 Norte 0 -- -- 65
2017-11-14 17:00:00 20.4 20 Norte 41 Norte 0 -- -- 61
2017-11-14 16:00:00 21.5 16 Nordeste 36 Este 0 -- -- 60
2017-11-14 15:00:00 21.9 16 Nordeste 32 Nordeste 0 -- -- 55
2017-11-14 14:00:00 21.9 22 Norte 37 Norte 0 -- -- 58
2017-11-14 13:00:00 -- -- -- -- -- -- -- -- --
2017-11-14 12:00:00 21.6 13 Norte 24 Norte 0 -- -- 54
2017-11-14 11:00:00 20.7 15 Nordeste 31 Norte 0 -- -- 58
2017-11-14 10:00:00 19.9 19 Norte 31 Nordeste 0 -- -- 61
2017-11-14 09:00:00 18.5 15 Norte 25 Norte 0 -- -- 67
2017-11-14 08:00:00 16.4 12 Norte 23 Norte 0 -- -- 75
2017-11-14 07:00:00 15.3 14 Norte 19 Norte 0 -- -- 78
2017-11-14 06:00:00 16.2 12 Norte 17 Norte 0 -- -- 77
2017-11-14 05:00:00 15.9 12 Norte 18 Norte 0 -- -- 78
2017-11-14 04:00:00 15.6 10 Norte 19 Norte 0 -- -- 78
2017-11-14 03:00:00 15.7 8 Norte 23 Norte 0 -- -- 78
2017-11-14 02:00:00 15.8 13 Norte 24 Noroeste 0 -- -- 79
2017-11-14 01:00:00 16.1 10 Norte 23 Norte 0 -- -- 79
2017-11-14 00:00:00 16.6 11 Norte 15 Norte 0 -- -- 80
2017-11-13 23:00:00 16.2 7 Norte 19 Norte 0 -- -- 81
2017-11-13 22:00:00 16.9 15 Norte 21 Norte 0 -- -- 81
2017-11-13 21:00:00 16.7 13 Norte 28 Norte 0 -- -- 80
2017-11-13 20:00:00 17.2 18 Norte 28 Norte 0 -- -- 79
2017-11-13 19:00:00 17.6 19 Norte 33 Noroeste 0 -- -- 78
2017-11-13 18:00:00 18.6 22 Noroeste 33 Noroeste 0 -- -- 75
2017-11-13 17:00:00 20.2 23 Noroeste 35 Noroeste 0 -- -- 71
2017-11-13 16:00:00 21.9 16 Norte 31 Noroeste 0 -- -- 66
2017-11-13 15:00:00 22.9 20 Norte 28 Norte 0 -- -- 62
2017-11-13 14:00:00 22.6 12 Nordeste 28 Nordeste 0 -- -- 60
2017-11-13 13:00:00 22.3 16 Este 29 Nordeste 0 -- -- 60
2017-11-13 12:00:00 21.5 17 Nordeste 28 Nordeste 0 -- -- 64
2017-11-13 11:00:00 20.7 17 Nordeste 29 Nordeste 0 -- -- 67
2017-11-13 10:00:00 19.6 15 Nordeste 23 Nordeste 0 -- -- 74
2017-11-13 09:00:00 17.9 8 Nordeste 14 Este 0 -- -- 87
2017-11-13 08:00:00 16 3 Noroeste 13 Norte 0 -- -- 94
2017-11-13 07:00:00 14.3 3 Noroeste 14 Nordeste 0 -- -- 95
2017-11-13 06:00:00 -- -- -- -- -- -- -- -- --
2017-11-13 05:00:00 15.3 4 Noroeste 10 Oeste 0 -- -- 93
2017-11-13 04:00:00 15.4 6 Norte 14 Nordeste 0 -- -- 92
2017-11-13 03:00:00 14.9 7 Noroeste 11 Noroeste 0 -- -- 91
2017-11-13 02:00:00 15.7 5 Noroeste 10 Norte 0 -- -- 90
2017-11-13 01:00:00 15.5 4 Oeste 10 Noroeste 0 -- -- 89
2017-11-13 00:00:00 16.3 4 Noroeste 7 Noroeste 0 -- -- 89
2017-11-12 23:00:00 16.7 2 Noroeste 12 Nordeste 0 -- -- 88
2017-11-12 22:00:00 17.1 3 Noroeste 6 Oeste 0 -- -- 87
2017-11-12 21:00:00 18.1 3 Noroeste 8 Noroeste 0 -- -- 83
2017-11-12 20:00:00 19 4 Norte 13 Noroeste 0 -- -- 73
2017-11-12 19:00:00 19.4 6 Nordeste 13 Nordeste 0 -- -- 52
2017-11-12 18:00:00 21.1 8 Este 16 Este 0 -- -- 57
2017-11-12 17:00:00 23.5 12 Este 19 Este 0 -- -- 42
2017-11-12 16:00:00 25.6 12 Este 22 Nordeste 0 -- -- 34
2017-11-12 15:00:00 26.8 9 Este 19 Este 0 -- -- 33
2017-11-12 14:00:00 26.7 12 Sudeste 26 Sudeste 0 -- -- 28
2017-11-12 13:00:00 25 11 Sudeste 22 Sudeste 0 -- -- 42
2017-11-12 12:00:00 25.1 12 Sudeste 24 Sudeste 0 -- -- 46
2017-11-12 11:00:00 23.3 11 Sudeste 19 Sudeste 0 -- -- 54
2017-11-12 10:00:00 21 6 Este 12 Este 0 -- -- 73
2017-11-12 09:00:00 19.4 6 Sudeste 10 Sudeste 0 -- -- 87
2017-11-12 08:00:00 17.7 4 Sudoeste 12 Sudoeste 0 -- -- 90
2017-11-12 07:00:00 17.2 6 Sur 10 Sudoeste 0 -- -- 90
2017-11-12 06:00:00 17.2 6 Sur 10 Sur 0 -- -- 89
2017-11-12 05:00:00 17 6 Sudoeste 12 Sudoeste 0 -- -- 89
2017-11-12 04:00:00 17.7 5 Sur 10 Sudoeste 0 -- -- 89
2017-11-12 03:00:00 17.7 6 Sudoeste 10 Sur 0 -- -- 86
2017-11-12 02:00:00 18.1 5 Sur 12 Sudoeste 0 -- -- 82
2017-11-12 01:00:00 18.2 5 Sudoeste 10 Sudoeste 0 -- -- 79
2017-11-12 00:00:00 18.2 4 Sudoeste 12 Sur 0 -- -- 78
2017-11-11 23:00:00 18.5 5 Sur 10 Sudoeste 0 -- -- 72
2017-11-11 22:00:00 18.7 6 Sur 11 Sur 0 -- -- 72
2017-11-11 21:00:00 19.1 2 Sur 8 Sudoeste 0 -- -- 54
2017-11-11 20:00:00 19.2 2 Este 5 Este 0 -- -- 58
2017-11-11 19:00:00 20.2 0 Calma 10 Este 0 -- -- 56
2017-11-11 18:00:00 22.2 6 Este 13 Este 0 -- -- 53
2017-11-11 17:00:00 25.5 9 Este 16 Este 0 -- -- 42
2017-11-11 16:00:00 26.3 10 Este 18 Este 0 -- -- 40
2017-11-11 15:00:00 26.1 10 Sudeste 19 Este 0 -- -- 36
2017-11-11 14:00:00 25.5 9 Sudeste 21 Este 0 -- -- 41
2017-11-11 13:00:00 24.8 11 Este 23 Este 0 -- -- 45
2017-11-11 12:00:00 23.8 12 Este 18 Sudeste 0 -- -- 51
2017-11-11 11:00:00 22.1 9 Sudeste 23 Sudeste 0 -- -- 63
2017-11-11 10:00:00 20.5 13 Este 21 Este 0 -- -- 75
2017-11-11 09:00:00 19.3 10 Este 19 Sudeste 0 -- -- 83
2017-11-11 08:00:00 16.7 4 Oeste 10 Noroeste 0 -- -- 91
2017-11-11 07:00:00 15.9 6 Noroeste 8 Oeste 0 -- -- 90
2017-11-11 06:00:00 -- 3 Norte 10 Nordeste 0 -- -- --
2017-11-11 05:00:00 16.3 4 Noroeste 9 Oeste 0 -- -- 88
2017-11-11 04:00:00 16.5 4 Noroeste 9 Sudoeste 0 -- -- 87
2017-11-11 03:00:00 16.9 4 Norte 11 Norte 0 -- -- 86
2017-11-11 02:00:00 17.2 4 Norte 15 Nordeste 0 -- -- 84
2017-11-11 01:00:00 17.3 7 Norte 21 Nordeste 0 -- -- 83
2017-11-11 00:00:00 17.4 4 Noroeste 16 Este 0 -- -- 83
2017-11-10 23:00:00 17.7 4 Nordeste 21 Este 0 -- -- 82
2017-11-10 22:00:00 17.7 8 Nordeste 19 Nordeste 0 -- -- 81
2017-11-10 21:00:00 17.9 6 Nordeste 23 Este 0 -- -- 81
2017-11-10 20:00:00 18.2 12 Nordeste 26 Nordeste 0 -- -- 80
2017-11-10 19:00:00 18.5 11 Nordeste 26 Nordeste 0 -- -- 76
2017-11-10 18:00:00 19.3 11 Este 29 Nordeste 0 -- -- 70
2017-11-10 17:00:00 20.8 14 Este 33 Nordeste 0 -- -- 59
2017-11-10 16:00:00 22.2 16 Este 35 Nordeste 0 -- -- 52
2017-11-10 15:00:00 23.1 15 Nordeste 27 Nordeste 0 -- -- 45
2017-11-10 14:00:00 23.4 14 Nordeste 26 Nordeste 0 -- -- 46
2017-11-10 13:00:00 23 15 Este 31 Este 0 -- -- 49
2017-11-10 12:00:00 22.2 17 Nordeste 32 Este 0 -- -- 53
2017-11-10 11:00:00 21.6 13 Nordeste 33 Este 0 -- -- 62
2017-11-10 10:00:00 20.3 18 Nordeste 33 Este 0 -- -- 71
2017-11-10 09:00:00 19.1 5 Sudoeste 21 Sudoeste 0 -- -- 79
2017-11-10 08:00:00 17.7 6 Sudoeste 24 Nordeste 0 -- -- 89
2017-11-10 07:00:00 17.5 7 Nordeste 21 Este 0 -- -- 89
2017-11-10 06:00:00 17.8 5 Nordeste 15 Este 0 -- -- 87
2017-11-10 05:00:00 18 9 Este 22 Este 0 -- -- 87
2017-11-10 04:00:00 18.1 6 Este 24 Este 0 -- -- 86
2017-11-10 03:00:00 18.2 12 Este 22 Nordeste 0 -- -- 85
2017-11-10 02:00:00 18 4 Este 23 Este 0 -- -- 86
2017-11-10 01:00:00 18.2 9 Nordeste 17 Nordeste 0 -- -- 88
2017-11-10 00:00:00 18.4 12 Nordeste 24 Nordeste 0 -- -- 86
2017-11-09 23:00:00 18.6 11 Nordeste 22 Nordeste 0 -- -- 86
2017-11-09 22:00:00 18.7 11 Nordeste 23 Nordeste 0 -- -- 84
2017-11-09 21:00:00 18.5 7 Este 14 Este 0 -- -- 86
2017-11-09 20:00:00 18.7 4 Oeste 12 Nordeste 0 -- -- 86
2017-11-09 19:00:00 19.4 6 Este 14 Nordeste 0 -- -- 83
2017-11-09 18:00:00 20.6 9 Este 19 Este 0 -- -- 78
2017-11-09 17:00:00 22.3 13 Este 21 Este 0 -- -- 71
2017-11-09 16:00:00 23.4 14 Este 24 Este 0 -- -- 70
2017-11-09 15:00:00 23.6 17 Este 30 Este 0 -- -- 71
2017-11-09 14:00:00 24.3 16 Este 25 Este 0 -- -- 70
2017-11-09 13:00:00 24.8 15 Este 28 Este 0 -- -- 68
2017-11-09 12:00:00 24.8 15 Este 25 Este 0 -- -- 68
2017-11-09 11:00:00 24.5 16 Este 22 Este 0 -- -- 71
2017-11-09 10:00:00 22.7 4 Nordeste 12 Este 0 -- -- 78
2017-11-09 09:00:00 20.4 2 Nordeste 7 Noroeste 0 -- -- 93
2017-11-09 08:00:00 18.1 6 Oeste 11 Noroeste 0 -- -- 96
2017-11-09 07:00:00 17.2 9 Noroeste 11 Noroeste 0 -- -- 96
2017-11-09 06:00:00 17.2 8 Oeste 12 Noroeste 0 -- -- 95
2017-11-09 05:00:00 17 6 Noroeste 11 Oeste 0 -- -- 95
2017-11-09 04:00:00 17.6 7 Noroeste 12 Noroeste 0 -- -- 94
2017-11-09 03:00:00 16.8 10 Noroeste 11 Noroeste 0 -- -- 94
2017-11-09 02:00:00 17.3 6 Noroeste 12 Noroeste 0 -- -- 93
2017-11-09 01:00:00 17.7 4 Oeste 10 Oeste 0 -- -- 91
2017-11-09 00:00:00 17.9 5 Oeste 9 Noroeste 0 -- -- 91
2017-11-08 23:00:00 18.3 4 Noroeste 6 Sur 0 -- -- 89
2017-11-08 22:00:00 18.9 0 Calma 10 Este 0 -- -- 86
2017-11-08 21:00:00 18.3 8 Noroeste 10 Norte 0 -- -- 85
2017-11-08 20:00:00 19.6 0 Calma 8 Este 0 -- -- 83
2017-11-08 19:00:00 20.2 6 Nordeste 13 Nordeste 0 -- -- 82
2017-11-08 18:00:00 21.5 8 Este 18 Este 0 -- -- 75
2017-11-08 17:00:00 23.2 12 Sudeste 22 Este 0 -- -- 68
2017-11-08 16:00:00 24.1 14 Este 30 Este 0 -- -- 62
2017-11-08 15:00:00 24.9 19 Este 36 Este 0 -- -- 58
2017-11-08 14:00:00 25.1 22 Este 35 Este 0 -- -- 58
2017-11-08 13:00:00 25 19 Este 32 Este 0 -- -- 60
2017-11-08 12:00:00 24.2 21 Este 39 Este 0 -- -- 61
2017-11-08 11:00:00 23.6 19 Este 33 Este 0 -- -- 67
2017-11-08 10:00:00 22.4 18 Este 31 Este 0 -- -- 74
2017-11-08 09:00:00 21.3 12 Este 25 Nordeste 0 -- -- 79
2017-11-08 08:00:00 20.1 4 Norte 16 Este 0 -- -- 85
2017-11-08 07:00:00 19.9 17 Nordeste 27 Nordeste 0 -- -- 83
2017-11-08 06:00:00 20.1 8 Norte 24 Nordeste 0 -- -- 82
2017-11-08 05:00:00 20.1 12 Nordeste 23 Este 0 -- -- 83
2017-11-08 04:00:00 20.7 6 Norte 27 Nordeste 0 -- -- 75
2017-11-08 03:00:00 20.2 7 Oeste 16 Este 0 -- -- 81
2017-11-08 02:00:00 20.8 7 Sur 13 Norte 0 -- -- 75
2017-11-08 01:00:00 20.6 4 Noroeste 14 Noroeste 0 -- -- 74
2017-11-08 00:00:00 19.9 9 Noroeste 14 Oeste 0 -- -- 77
2017-11-07 23:00:00 19.7 4 Sudoeste 12 Sudoeste 0 -- -- 85
2017-11-07 22:00:00 19.5 6 Noroeste 28 Norte 0 -- -- 87
2017-11-07 21:00:00 -- -- -- -- -- -- -- -- --
2017-11-07 20:00:00 19.4 12 Nordeste 21 Nordeste 0 -- -- 87
2017-11-07 19:00:00 19.7 8 Norte 19 Nordeste 0 -- -- 86
2017-11-07 18:00:00 20.1 12 Nordeste 31 Nordeste 0 -- -- 84
2017-11-07 17:00:00 21 13 Nordeste 24 Nordeste 0 -- -- 80
2017-11-07 16:00:00 21.9 18 Nordeste 32 Nordeste 0 -- -- 73
2017-11-07 15:00:00 21.7 20 Nordeste 37 Nordeste 0 -- -- 76
2017-11-07 14:00:00 22.2 17 Nordeste 31 Norte 0 -- -- 75
2017-11-07 13:00:00 22.4 19 Nordeste 34 Nordeste 0 -- -- 74
2017-11-07 12:00:00 22.1 20 Nordeste 34 Norte 0 -- -- 73
2017-11-07 11:00:00 22.2 20 Nordeste 31 Nordeste 0 -- -- 73
2017-11-07 10:00:00 21.1 17 Nordeste 26 Nordeste 0 -- -- 72
2017-11-07 09:00:00 19.6 12 Norte 19 Norte 0 -- -- 83
2017-11-07 08:00:00 17.6 10 Norte 17 Noroeste 0 -- -- 92
2017-11-07 07:00:00 16.8 11 Noroeste 17 Noroeste 0 -- -- 92
2017-11-07 06:00:00 17.6 2 Nordeste 20 Norte 0 -- -- 91
2017-11-07 05:00:00 16.8 6 Norte 18 Norte 0 -- -- 91
2017-11-07 04:00:00 15.8 7 Norte 17 Norte 0 -- -- 93
2017-11-07 03:00:00 16 8 Norte 15 Noroeste 0 -- -- 92
2017-11-07 02:00:00 15.9 9 Noroeste 12 Norte 0 -- -- 92
2017-11-07 01:00:00 16.7 10 Noroeste 16 Noroeste 0 -- -- 90
2017-11-07 00:00:00 16.7 8 Norte 14 Norte 0 -- -- 88
2017-11-06 23:00:00 17 8 Noroeste 21 Noroeste 0 -- -- 87
2017-11-06 22:00:00 17.7 16 Noroeste 29 Noroeste 0 -- -- 86
2017-11-06 21:00:00 18 20 Noroeste 28 Noroeste 0 -- -- 85
2017-11-06 20:00:00 18.2 20 Noroeste 28 Norte 0 -- -- 84
2017-11-06 19:00:00 18.9 19 Norte 34 Norte 0 -- -- 79
2017-11-06 18:00:00 20.1 26 Norte 35 Norte 0 -- -- 73
2017-11-06 17:00:00 21 17 Nordeste 31 Nordeste 0 -- -- 73
2017-11-06 16:00:00 21.4 21 Nordeste 30 Norte 0 -- -- 71
2017-11-06 15:00:00 21.9 21 Nordeste 39 Nordeste 0 -- -- 68
2017-11-06 14:00:00 22.8 21 Nordeste 33 Nordeste 0 -- -- 65
2017-11-06 13:00:00 23.2 20 Nordeste 44 Nordeste 0 -- -- 61
2017-11-06 12:00:00 22.6 17 Nordeste 33 Nordeste 0 -- -- 62
2017-11-06 11:00:00 21.8 23 Nordeste 32 Nordeste 0 -- -- 62
2017-11-06 10:00:00 20.5 21 Norte 35 Nordeste 0 -- -- 67
2017-11-06 09:00:00 19.7 17 Norte 23 Norte 0 -- -- 73
2017-11-06 08:00:00 17.1 14 Noroeste 21 Norte 0 -- -- 85
2017-11-06 07:00:00 16.5 12 Norte 19 Norte 0 -- -- 86
2017-11-06 06:00:00 16.8 12 Norte 27 Norte 0 -- -- 83
2017-11-06 05:00:00 18 16 Norte 26 Nordeste 0 -- -- 82
2017-11-06 04:00:00 17.9 15 Norte 23 Nordeste 0 -- -- 82
2017-11-06 03:00:00 18.2 14 Norte 27 Nordeste 0 -- -- 78
2017-11-06 02:00:00 18.7 22 Nordeste 32 Nordeste 0 -- -- 78
2017-11-06 01:00:00 18.6 18 Norte 29 Nordeste 0 -- -- 78
2017-11-06 00:00:00 18.6 18 Norte 31 Norte 0 -- -- 76
2017-11-05 23:00:00 18.8 16 Norte 32 Norte 0 -- -- 73
2017-11-05 22:00:00 18.7 19 Nordeste 28 Norte 0 -- -- 74
2017-11-05 21:00:00 19.2 16 Norte 29 Norte 0 -- -- 76
2017-11-05 20:00:00 19.2 14 Nordeste 32 Nordeste 0 -- -- 78
2017-11-05 19:00:00 19.5 20 Nordeste 32 Norte 0 -- -- 77
2017-11-05 18:00:00 19.8 20 Nordeste 40 Nordeste 0 -- -- 72
2017-11-05 17:00:00 20.5 24 Nordeste 41 Nordeste 0 -- -- 73
2017-11-05 16:00:00 21.4 30 Nordeste 42 Nordeste 0 -- -- 70
2017-11-05 15:00:00 22.6 28 Nordeste 50 Nordeste 0 -- -- 62
2017-11-05 14:00:00 23 26 Nordeste 42 Nordeste 0 -- -- 57
2017-11-05 13:00:00 23.2 27 Nordeste 45 Nordeste 0 -- -- 59
2017-11-05 12:00:00 23.1 26 Nordeste 43 Nordeste 0 -- -- 52
2017-11-05 11:00:00 21.4 24 Norte 34 Norte 0 -- -- 65
2017-11-05 10:00:00 21.3 22 Nordeste 35 Nordeste 0 -- -- 67
2017-11-05 09:00:00 20.2 19 Nordeste 29 Nordeste 0 -- -- 70
2017-11-05 08:00:00 18.3 12 Norte 23 Norte 0 -- -- 80
2017-11-05 07:00:00 17.4 11 Norte 20 Nordeste 0 -- -- 81
2017-11-05 06:00:00 16.4 9 Norte 23 Norte 0 -- -- 83
2017-11-05 05:00:00 16.9 11 Norte 22 Nordeste 0 -- -- 82
2017-11-05 04:00:00 17.7 14 Norte 23 Norte 0 -- -- 81
2017-11-05 03:00:00 17.9 15 Norte 29 Norte 0 -- -- 80
2017-11-05 02:00:00 18.1 14 Norte 26 Norte 0 -- -- 81
2017-11-05 01:00:00 18.4 15 Norte 23 Norte 0 -- -- 81
2017-11-05 00:00:00 17.8 11 Norte 17 Nordeste 0 -- -- 81
2017-11-04 23:00:00 17.8 10 Norte 21 Norte 0 -- -- 79
2017-11-04 22:00:00 17.4 8 Norte 14 Nordeste 0 -- -- 76
2017-11-04 21:00:00 17.9 11 Norte 22 Norte 0 -- -- 74
2017-11-04 20:00:00 18.8 9 Norte 21 Nordeste 0 -- -- 78
2017-11-04 19:00:00 19.4 13 Nordeste 25 Nordeste 0 -- -- 75
2017-11-04 18:00:00 20 18 Nordeste 30 Nordeste 0 -- -- 71
2017-11-04 17:00:00 20.9 18 Nordeste 33 Nordeste 0 -- -- 64
2017-11-04 16:00:00 21.6 22 Nordeste 32 Nordeste 0 -- -- 67
2017-11-04 15:00:00 22.3 20 Nordeste 35 Nordeste 0 -- -- 63
2017-11-04 14:00:00 22.4 19 Nordeste 35 Nordeste 0 -- -- 65
2017-11-04 13:00:00 22.2 24 Nordeste 36 Nordeste 0 -- -- 61
2017-11-04 12:00:00 22.1 23 Nordeste 35 Nordeste 0 -- -- 64
2017-11-04 11:00:00 21.8 24 Nordeste 35 Nordeste 0 -- -- 59
2017-11-04 10:00:00 21.1 20 Nordeste 31 Nordeste 0 -- -- 61
2017-11-04 09:00:00 19.9 15 Norte 23 Norte 0 -- -- 72
2017-11-04 08:00:00 16.5 5 Norte 12 Noroeste 0 -- -- 91
2017-11-04 07:00:00 15.5 11 Noroeste 13 Noroeste 0 -- -- 92
2017-11-04 06:00:00 15 8 Noroeste 10 Noroeste 0 -- -- 93
2017-11-04 05:00:00 14.9 4 Noroeste 10 Noroeste 0 -- -- 92
2017-11-04 04:00:00 15.4 8 Noroeste 9 Noroeste 0 -- -- 92
2017-11-04 03:00:00 15.8 6 Noroeste 10 Noroeste 0 -- -- 92
2017-11-04 02:00:00 15.6 4 Noroeste 9 Noroeste 0 -- -- 91
2017-11-04 01:00:00 15.9 6 Noroeste 8 Noroeste 0 -- -- 91
2017-11-04 00:00:00 16.2 5 Noroeste 9 Noroeste 0 -- -- 90
2017-11-03 23:00:00 16.9 6 Noroeste 10 Noroeste 0 -- -- 89
2017-11-03 22:00:00 -- 6 Noroeste 13 Noroeste 0 -- -- --
2017-11-03 21:00:00 18.3 10 Noroeste 19 Noroeste 0 -- -- 85
2017-11-03 20:00:00 18.8 15 Noroeste 20 Noroeste 0 -- -- 83
2017-11-03 19:00:00 19.4 13 Noroeste 21 Norte 0 -- -- 80
2017-11-03 18:00:00 20.5 14 Norte 24 Norte 0 -- -- 69
2017-11-03 17:00:00 22.3 19 Noroeste 29 Noroeste 0 -- -- 61
2017-11-03 16:00:00 23.7 17 Noroeste 26 Norte 0 -- -- 58
2017-11-03 15:00:00 24.2 17 Noroeste 28 Norte 0 -- -- 55
2017-11-03 14:00:00 24.2 14 Noroeste 25 Noroeste 0 -- -- 57
2017-11-03 13:00:00 24.3 13 Norte 24 Norte 0 -- -- 56
2017-11-03 12:00:00 23.5 10 Norte 19 Norte 0 -- -- 54
2017-11-03 11:00:00 22 9 Norte 19 Norte 0 -- -- 61
2017-11-03 10:00:00 20.9 7 Nordeste 14 Noroeste 0 -- -- 67
2017-11-03 09:00:00 19.7 5 Norte 10 Norte 0 -- -- 73
2017-11-03 08:00:00 17.3 3 Norte -- -- 0 -- -- 82
2017-11-03 07:00:00 15.9 6 Noroeste 7 Noroeste 0 -- -- 86
2017-11-03 06:00:00 15.4 4 Noroeste 5 Noroeste 0 -- -- 86
2017-11-03 05:00:00 15.6 3 Noroeste 4 Oeste 0 -- -- 87
2017-11-03 04:00:00 15.5 3 Noroeste 5 Noroeste 0 -- -- 88
2017-11-03 03:00:00 15.3 5 Oeste 6 Oeste 0 -- -- 87
2017-11-03 02:00:00 15.2 4 Noroeste 7 Noroeste 0 -- -- 89
2017-11-03 01:00:00 14.5 5 Noroeste 7 Noroeste 0 -- -- 87
2017-11-03 00:00:00 15.4 6 Noroeste 12 Noroeste 0 -- -- 84
2017-11-02 23:00:00 -- -- -- -- -- -- -- -- --
2017-11-02 22:00:00 17 9 Noroeste 13 Noroeste 0 -- -- 81
2017-11-02 21:00:00 17.6 12 Noroeste 14 Noroeste 0 -- -- 79
2017-11-02 20:00:00 18 10 Noroeste 16 Noroeste 0 -- -- 76
2017-11-02 19:00:00 18.6 11 Norte 21 Norte 0 -- -- 74
2017-11-02 18:00:00 19.5 15 Noroeste 21 Noroeste 0 -- -- 70
2017-11-02 17:00:00 20.6 16 Noroeste 24 Noroeste 0 -- -- 69
2017-11-02 16:00:00 22 20 Noroeste 29 Noroeste 0 -- -- 63
2017-11-02 15:00:00 23.2 17 Norte 28 Noroeste 0 -- -- 58
2017-11-02 14:00:00 23.3 14 Norte 27 Norte 0 -- -- 57
2017-11-02 13:00:00 23.3 15 Noroeste 30 Noroeste 0 -- -- 57
2017-11-02 12:00:00 22.8 7 Nordeste 16 Nordeste 0 -- -- 56
2017-11-02 11:00:00 21.6 4 Nordeste 22 Norte 0 -- -- 61
2017-11-02 10:00:00 20.2 17 Norte 27 Norte 0 -- -- 66
2017-11-02 09:00:00 18.9 12 Norte 16 Noroeste 0 -- -- 73
2017-11-02 08:00:00 16.2 5 Noroeste 10 Noroeste 0 -- -- 85
2017-11-02 07:00:00 15.7 8 Noroeste 12 Noroeste 0 -- -- 84
2017-11-02 06:00:00 16 6 Norte 10 Noroeste 0 -- -- 88
2017-11-02 05:00:00 15.5 5 Norte 8 Norte 0 -- -- 90
2017-11-02 04:00:00 14.8 8 Norte 10 Norte 0 -- -- 91
2017-11-02 03:00:00 15.5 6 Norte 9 Norte 0 -- -- 90
2017-11-02 02:00:00 15.5 7 Norte 12 Norte 0 -- -- 91
2017-11-02 01:00:00 15.9 10 Norte 15 Norte 0 -- -- 89
2017-11-02 00:00:00 16.8 11 Noroeste 20 Noroeste 0 -- -- 87
2017-11-01 23:00:00 17.4 12 Noroeste 21 Norte 0 -- -- 85
2017-11-01 22:00:00 17.4 12 Noroeste 15 Noroeste 0 -- -- 88
2017-11-01 21:00:00 17.3 8 Noroeste 13 Norte 0 -- -- 85
2017-11-01 20:00:00 18 9 Norte 17 Noroeste 0 -- -- 82
2017-11-01 19:00:00 19 8 Norte 19 Nordeste 0 -- -- 76
2017-11-01 18:00:00 20.6 15 Nordeste 23 Nordeste 0 -- -- 73
2017-11-01 17:00:00 22.5 15 Nordeste 24 Nordeste 0 -- -- 65
2017-11-01 16:00:00 24 8 Nordeste 22 Este 0 -- -- 58
2017-11-01 15:00:00 24.2 12 Este 23 Este 0 -- -- 56
2017-11-01 14:00:00 24.5 13 Este 22 Este 0 -- -- 56
2017-11-01 13:00:00 23.7 8 Este 26 Nordeste 0 -- -- 59
2017-11-01 12:00:00 22.6 15 Nordeste 23 Nordeste 0 -- -- 61
2017-11-01 11:00:00 21.9 13 Nordeste 20 Nordeste 0 -- -- 65
2017-11-01 10:00:00 20.6 11 Nordeste 21 Nordeste 0 -- -- 72
2017-11-01 09:00:00 18.6 14 Nordeste 23 Nordeste 0 -- -- 82
2017-11-01 08:00:00 15.8 6 Noroeste 10 Norte 0 -- -- 94
2017-11-01 07:00:00 15.1 8 Noroeste 12 Norte 0 -- -- 93
2017-11-01 06:00:00 15.8 4 Norte 13 Noroeste 0 -- -- 92
2017-11-01 05:00:00 16 6 Noroeste 13 Noroeste 0 -- -- 91
2017-11-01 04:00:00 16.1 4 Oeste 10 Norte 0 -- -- 92
2017-11-01 03:00:00 15.8 6 Noroeste 10 Oeste 0 -- -- 92
2017-11-01 02:00:00 16.4 4 Noroeste 15 Norte 0 -- -- 91
2017-11-01 01:00:00 16.9 4 Norte 10 Oeste 0 -- -- 90
2017-11-01 00:00:00 17 4 Noroeste 13 Nordeste 0 -- -- 88
2017-10-31 23:00:00 17.7 5 Nordeste 15 Nordeste 0 -- -- 88
2017-10-31 22:00:00 17.9 6 Nordeste 11 Nordeste 0 -- -- 88
2017-10-31 21:00:00 18.3 3 Este 14 Nordeste 0 -- -- 86
2017-10-31 20:00:00 18.7 9 Nordeste 19 Nordeste 0 -- -- 85
2017-10-31 19:00:00 19.6 3 Nordeste 14 Este 0 -- -- 81
2017-10-31 18:00:00 20.9 12 Este 24 Sudeste 0 -- -- 75
2017-10-31 17:00:00 23.4 14 Este 25 Sudeste 0 -- -- 65
2017-10-31 16:00:00 24.8 15 Este 27 Sudeste 0 -- -- 57
2017-10-31 15:00:00 25.7 15 Sudeste 25 Sudeste 0 -- -- 54
2017-10-31 14:00:00 25.4 9 Este 19 Este 0 -- -- 51
2017-10-31 13:00:00 24.3 9 Este 20 Sudeste 0 -- -- 57
2017-10-31 12:00:00 23.5 12 Este 22 Sudeste 0 -- -- 59
2017-10-31 11:00:00 22.4 6 Este 18 Nordeste 0 -- -- 67
2017-10-31 10:00:00 21.3 7 Este 13 Nordeste 0 -- -- 74
2017-10-31 09:00:00 19.3 2 Nordeste 6 Nordeste 0 -- -- 90
2017-10-31 08:00:00 16.5 3 Oeste 10 Oeste 0.2 -- -- 96
2017-10-31 07:00:00 14.6 5 Oeste 11 Oeste 0 -- -- 95
2017-10-31 06:00:00 15 5 Noroeste 10 Noroeste 0 -- -- 96
2017-10-31 05:00:00 15.3 7 Noroeste 15 Noroeste 0 -- -- 95
2017-10-31 04:00:00 15.3 7 Noroeste 14 Norte 0 -- -- 95
2017-10-31 03:00:00 15.6 5 Noroeste 12 Norte 0 -- -- 96
2017-10-31 02:00:00 16.1 4 Noroeste 12 Noroeste 0 -- -- 95
2017-10-31 01:00:00 15.7 5 Noroeste 8 Noroeste 0 -- -- 94
2017-10-31 00:00:00 16.5 6 Noroeste 9 Noroeste 0 -- -- 94
2017-10-30 23:00:00 16.7 5 Noroeste 8 Noroeste 0 -- -- 93
2017-10-30 22:00:00 17.4 4 Noroeste 10 Noroeste 0 -- -- 91
2017-10-30 21:00:00 18.2 5 Norte 13 Norte 0 -- -- 88
2017-10-30 20:00:00 19.2 6 Norte 16 Noroeste 0 -- -- 86
2017-10-30 19:00:00 20.3 13 Norte 26 Noroeste 0 -- -- 84
2017-10-30 18:00:00 21.2 20 Noroeste 30 Noroeste 0 -- -- 81
2017-10-30 17:00:00 23.5 19 Noroeste 28 Noroeste 0 -- -- 71
2017-10-30 16:00:00 26.4 15 Norte 22 Norte 0 -- -- 57
2017-10-30 15:00:00 27.1 6 Norte 20 Norte 0 -- -- 50
2017-10-30 14:00:00 27.2 9 Norte 27 Este 0 -- -- 50
2017-10-30 13:00:00 26.8 12 Este 21 Este 0 -- -- 47
2017-10-30 12:00:00 25.6 10 Nordeste 19 Nordeste 0 -- -- 40
2017-10-30 11:00:00 24.5 7 Nordeste 15 Nordeste 0 -- -- 48
2017-10-30 10:00:00 22 8 Nordeste 13 Nordeste 0 -- -- 67
2017-10-30 09:00:00 19.3 5 Nordeste 13 Noroeste 0 -- -- 92
2017-10-30 08:00:00 17 6 Noroeste 10 Oeste 0 -- -- 97
2017-10-30 07:00:00 15.5 6 Noroeste 11 Noroeste 0.2 -- -- 95
2017-10-30 06:00:00 15.8 6 Norte 13 Norte 0 -- -- 96
2017-10-30 05:00:00 16.1 6 Noroeste 12 Noroeste 0 -- -- 96
2017-10-30 04:00:00 16.7 8 Noroeste 17 Noroeste 0 -- -- 95
2017-10-30 03:00:00 16 8 Noroeste 12 Noroeste 0 -- -- 97
2017-10-30 02:00:00 15.9 9 Noroeste 12 Noroeste 0 -- -- 96
2017-10-30 01:00:00 15.8 6 Noroeste 12 Noroeste 0 -- -- 96
2017-10-30 00:00:00 17.6 8 Norte 18 Norte 0 -- -- 96
2017-10-29 23:00:00 17.9 14 Norte 24 Norte 0 -- -- 95
2017-10-29 22:00:00 18.2 19 Norte 24 Norte 0 -- -- 93
2017-10-29 21:00:00 18.5 10 Norte 18 Noroeste 0 -- -- 91
2017-10-29 20:00:00 19.2 15 Noroeste 23 Norte 0 -- -- 89
2017-10-29 19:00:00 20 18 Norte 28 Noroeste 0 -- -- 84
2017-10-29 18:00:00 21.5 23 Noroeste 30 Norte 0 -- -- 77
2017-10-29 17:00:00 23.4 22 Norte 28 Norte 0 -- -- 70
2017-10-29 16:00:00 24.6 21 Norte 28 Norte 0 -- -- 67
2017-10-29 15:00:00 26.3 18 Norte 26 Noroeste 0 -- -- 60
2017-10-29 14:00:00 27.1 14 Noroeste 22 Noroeste 0 -- -- 56
2017-10-29 13:00:00 27.5 13 Este 22 Este 0 -- -- 53
2017-10-29 12:00:00 26.7 9 Sudeste 15 Este 0 -- -- 52
2017-10-29 11:00:00 24.8 5 Este 12 Este 0 -- -- 59
2017-10-29 10:00:00 22.4 5 Sur 9 Sudeste 0 -- -- 69
2017-10-29 09:00:00 20.2 3 Este 7 Nordeste 0 -- -- 80
2017-10-29 08:00:00 17.4 4 Noroeste 10 Noroeste 0 -- -- 94
2017-10-29 07:00:00 15.6 8 Noroeste 13 Noroeste 0 -- -- 92
2017-10-29 06:00:00 15.9 8 Noroeste 11 Noroeste 0 -- -- 92
2017-10-29 05:00:00 15.9 5 Oeste 9 Oeste 0 -- -- 89
2017-10-29 04:00:00 16.9 4 Sudoeste 9 Sudoeste 0 -- -- 87
2017-10-29 03:00:00 17.3 2 Norte 9 Noroeste 0 -- -- 88
2017-10-29 02:00:00 16.9 6 Noroeste 10 Noroeste 0 -- -- 80
2017-10-29 01:00:00 18.2 0 Calma 8 Norte 0 -- -- 72
2017-10-29 00:00:00 18.5 2 Noroeste 5 Sur 0 -- -- 49
2017-10-28 23:00:00 19.8 4 Nordeste 17 Noroeste 0 -- -- 35
2017-10-28 22:00:00 22.3 15 Noroeste 21 Noroeste 0 -- -- 31
2017-10-28 21:00:00 21.6 16 Norte 21 Noroeste 0 -- -- 37
2017-10-28 20:00:00 22.7 2 Norte 12 Este 0 -- -- 49
2017-10-28 19:00:00 26.3 9 Nordeste 16 Este 0 -- -- 33
2017-10-28 18:00:00 28.4 10 Este 18 Este 0 -- -- 32
2017-10-28 17:00:00 29 11 Este 17 Este 0 -- -- 21
2017-10-28 16:00:00 28.5 10 Este 21 Sudeste 0 -- -- 27
2017-10-28 15:00:00 28.7 13 Sudeste 27 Sudeste 0 -- -- 25
2017-10-28 14:00:00 28.4 11 Sudeste 23 Este 0 -- -- 30
2017-10-28 13:00:00 27.3 16 Este 26 Este 0 -- -- 31
2017-10-28 12:00:00 26.4 15 Este 23 Este 0 -- -- 35
2017-10-28 11:00:00 24.4 12 Sudeste 18 Este 0 -- -- 40
2017-10-28 10:00:00 22.1 8 Sudeste 18 Sudeste 0 -- -- 54
2017-10-28 09:00:00 21 6 Sur 14 Sur 0 -- -- 62
2017-10-28 08:00:00 20.3 5 Sudoeste 11 Sudoeste 0 -- -- 60
2017-10-28 07:00:00 20.6 5 Sur 16 Este 0 -- -- 56
2017-10-28 06:00:00 21.1 4 Sur 14 Sur 0 -- -- 55
2017-10-28 05:00:00 21 7 Sudoeste 13 Sudoeste 0 -- -- 55
2017-10-28 04:00:00 21.2 6 Sur 15 Sudoeste 0 -- -- 51
2017-10-28 03:00:00 21.4 4 Sur 13 Sudoeste 0 -- -- 45
2017-10-28 02:00:00 -- -- -- -- -- -- -- -- --
2017-10-28 01:00:00 21.6 6 Sudoeste 10 Sudoeste 0 -- -- 42
2017-10-28 00:00:00 22.1 6 Sudoeste 18 Oeste 0 -- -- 41
2017-10-27 23:00:00 21.4 7 Oeste 11 Noroeste 0 -- -- 41
2017-10-27 22:00:00 23.2 5 Sur 12 Sudeste 0 -- -- 34
2017-10-27 21:00:00 23.3 4 Sudoeste 11 Sudeste 0 -- -- 35
2017-10-27 20:00:00 23 5 Oeste 9 Norte 0 -- -- 35
2017-10-27 19:00:00 25.6 5 Norte 15 Nordeste 0 -- -- 29
2017-10-27 18:00:00 26.9 9 Este 21 Este 0 -- -- 25
2017-10-27 17:00:00 27.9 14 Este 27 Este 0 -- -- 26
2017-10-27 16:00:00 28.3 17 Este 32 Este 0 -- -- 25
2017-10-27 15:00:00 27.7 21 Este 37 Este 0 -- -- 27
2017-10-27 14:00:00 27.6 22 Este 40 Sudeste 0 -- -- 28
2017-10-27 13:00:00 26.9 28 Este 44 Sudeste 0 -- -- 28
2017-10-27 12:00:00 26.7 28 Este 46 Sudeste 0 -- -- 28
2017-10-27 11:00:00 25.7 29 Sudeste 46 Sudeste 0 -- -- 34
2017-10-27 10:00:00 23.9 19 Sudeste 31 Sudeste 0 -- -- 44
2017-10-27 09:00:00 22.9 18 Sudeste 31 Sudeste 0 -- -- 43
2017-10-27 08:00:00 20.5 12 Sudeste 24 Sudeste 0 -- -- 58
2017-10-27 07:00:00 21.1 14 Sudeste 35 Sudeste 0 -- -- 54
2017-10-27 06:00:00 20.2 8 Sudeste 17 Sudeste 0 -- -- 65
2017-10-27 05:00:00 20.6 6 Sur 15 Sudeste 0 -- -- 62
2017-10-27 04:00:00 21.6 9 Sudeste 19 Este 0 -- -- 55
2017-10-27 03:00:00 21.4 0 Calma 9 Sudeste 0 -- -- 54
2017-10-27 02:00:00 22.4 8 Sudeste 28 Sudeste 0 -- -- 57
2017-10-27 01:00:00 22.9 10 Sudeste 20 Sudeste 0 -- -- 49
2017-10-27 00:00:00 23.3 4 Sur 28 Sudeste 0 -- -- 48
2017-10-26 23:00:00 24.7 17 Este 27 Este 0 -- -- 39
2017-10-26 22:00:00 24.8 13 Este 28 Sudeste 0 -- -- 39
2017-10-26 21:00:00 24.9 15 Este 23 Este 0 -- -- 38
2017-10-26 20:00:00 25.2 9 Este 16 Este 0 -- -- 36
2017-10-26 19:00:00 26.6 10 Este 18 Este 0 -- -- 30
2017-10-26 18:00:00 28.2 15 Este 26 Este 0 -- -- 27
2017-10-26 17:00:00 29.6 20 Este 32 Este 0 -- -- 29
2017-10-26 16:00:00 30.6 26 Este 38 Sudeste 0 -- -- 23
2017-10-26 15:00:00 30.4 26 Sudeste 38 Sudeste 0 -- -- 23
2017-10-26 14:00:00 30.6 25 Sudeste 37 Sudeste 0 -- -- 24
2017-10-26 13:00:00 29.9 20 Sudeste 37 Sudeste 0 -- -- 27
2017-10-26 12:00:00 29.3 17 Sudeste 33 Sudeste 0 -- -- 27
2017-10-26 11:00:00 27.9 13 Sudeste 22 Sudeste 0 -- -- 34
2017-10-26 10:00:00 26.1 3 Sudeste 5 Sudeste 0 -- -- 42
2017-10-26 09:00:00 22.1 3 Sur 6 Sur 0 -- -- 44
2017-10-26 08:00:00 20.1 0 Calma 9 Oeste 0 -- -- 46
2017-10-26 07:00:00 -- -- -- -- -- -- -- -- --
2017-10-26 06:00:00 22.2 4 Sudoeste 9 Oeste 0 -- -- 32
2017-10-26 05:00:00 21.5 2 Sur 10 Sur 0 -- -- 44
2017-10-26 04:00:00 23.3 4 Sur 11 Sudoeste 0 -- -- 30
2017-10-26 03:00:00 21.6 2 Sudoeste 8 Sur 0 -- -- 48
2017-10-26 02:00:00 21.6 3 Sudoeste 6 Sudoeste 0 -- -- 46
2017-10-26 01:00:00 21.3 3 Sudeste 8 Este 0 -- -- 47
2017-10-26 00:00:00 21.9 2 Oeste 6 Oeste 0 -- -- 32
2017-10-25 23:00:00 21.3 5 Noroeste 7 Oeste 0 -- -- 34
2017-10-25 22:00:00 21 3 Noroeste 4 Norte 0 -- -- 36
2017-10-25 21:00:00 23.2 3 Noroeste 5 Oeste 0 -- -- 33
2017-10-25 20:00:00 25.3 0 Calma 7 Este 0 -- -- 34
2017-10-25 19:00:00 27.6 5 Este 20 Sudeste 0 -- -- 31
2017-10-25 18:00:00 29.3 14 Este 21 Este 0 -- -- 29
2017-10-25 17:00:00 29.8 16 Sudeste 28 Sudeste 0 -- -- 26
2017-10-25 16:00:00 30.4 18 Este 30 Este 0 -- -- 25
2017-10-25 15:00:00 31 15 Este 26 Sudeste 0 -- -- 23
2017-10-25 14:00:00 29.4 8 Sudeste 16 Sudeste 0 -- -- 30
2017-10-25 13:00:00 26.6 9 Sudeste 22 Sudeste 0 -- -- 37
2017-10-25 12:00:00 26 13 Sudeste 21 Sudeste 0 -- -- 42
2017-10-25 11:00:00 24.9 5 Sudeste 14 Este 0 -- -- 44
2017-10-25 10:00:00 22.3 6 Sur 10 Sur 0 -- -- 59
2017-10-25 09:00:00 21.5 3 Oeste 10 Sudoeste 0 -- -- 67
2017-10-25 08:00:00 20.6 4 Sur 13 Sudoeste 0 -- -- 66
2017-10-25 07:00:00 20.3 5 Sur 12 Sudoeste 0 -- -- 64
2017-10-25 06:00:00 19.5 6 Sudoeste 12 Sur 0 -- -- 67
2017-10-25 05:00:00 18.8 7 Sur 13 Sur 0 -- -- 84
2017-10-25 04:00:00 19.1 3 Sur 9 Sur 0 -- -- 84
2017-10-25 03:00:00 19.7 5 Sur 8 Sur 0 -- -- 68
2017-10-25 02:00:00 20.4 3 Oeste 10 Noroeste 0 -- -- 44
2017-10-25 01:00:00 20.4 2 Noroeste 5 Noroeste 0 -- -- 41
2017-10-25 00:00:00 21.3 2 Sudeste 9 Sudoeste 0 -- -- 39